sensor_id;sensor_type;location;lat;lon;timestamp;temperature;humidity
25568;DHT22;13455;51.480;7.594;2022-07-24T00:31:01;17.60;99.90
25568;DHT22;13455;51.480;7.594;2022-07-24T00:33:26;17.50;99.90
25568;DHT22;13455;51.480;7.594;2022-07-24T00:35:52;17.40;99.90
25568;DHT22;13455;51.480;7.594;2022-07-24T00:38:18;17.40;99.90
25568;DHT22;13455;51.480;7.594;2022-07-24T00:40:43;17.30;99.90
25568;DHT22;13455;51.480;7.594;2022-07-24T00:43:09;17.20;99.90
25568;DHT22;13455;51.480;7.594;2022-07-24T00:45:35;17.20;99.90
25568;DHT22;13455;51.480;7.594;2022-07-24T00:48:01;17.20;99.90
25568;DHT22;13455;51.480;7.594;2022-07-24T06:21:47;19.30;99.90
25568;DHT22;13455;51.480;7.594;2022-07-24T06:24:13;19.30;99.90
25568;DHT22;13455;51.480;7.594;2022-07-24T06:26:38;19.40;99.90
25568;DHT22;13455;51.480;7.594;2022-07-24T06:29:04;19.50;99.90
25568;DHT22;13455;51.480;7.594;2022-07-24T06:31:30;19.80;99.90
25568;DHT22;13455;51.480;7.594;2022-07-24T06:36:21;19.80;99.90
25568;DHT22;13455;51.480;7.594;2022-07-24T06:46:06;20.60;99.90
25568;DHT22;13455;51.480;7.594;2022-07-24T06:48:32;20.60;99.90
25568;DHT22;13455;51.480;7.594;2022-07-24T06:50:58;20.70;99.90
25568;DHT22;13455;51.480;7.594;2022-07-24T07:17:48;22.20;99.90
25568;DHT22;13455;51.480;7.594;2022-07-24T07:27:34;22.70;99.90
25568;DHT22;13455;51.480;7.594;2022-07-24T07:32:26;22.90;99.90
25568;DHT22;13455;51.480;7.594;2022-07-24T07:37:20;23.30;99.90
25568;DHT22;13455;51.480;7.594;2022-07-24T07:39:46;23.30;99.90
25568;DHT22;13455;51.480;7.594;2022-07-24T07:42:11;23.60;99.90
25568;DHT22;13455;51.480;7.594;2022-07-24T07:44:37;23.70;99.90
25568;DHT22;13455;51.480;7.594;2022-07-24T07:49:29;24.00;99.90
25568;DHT22;13455;51.480;7.594;2022-07-24T07:59:12;24.70;99.90
25568;DHT22;13455;51.480;7.594;2022-07-24T08:16:14;25.50;99.90
25568;DHT22;13455;51.480;7.594;2022-07-24T08:21:06;25.90;99.90
25568;DHT22;13455;51.480;7.594;2022-07-24T08:23:32;25.50;99.90
25568;DHT22;13455;51.480;7.594;2022-07-24T08:28:24;26.30;99.90
25568;DHT22;13455;51.480;7.594;2022-07-24T08:40:37;27.20;99.90
25568;DHT22;13455;51.480;7.594;2022-07-24T08:43:04;27.20;99.90
25568;DHT22;13455;51.480;7.594;2022-07-24T09:05:08;28.50;99.90
25568;DHT22;13455;51.480;7.594;2022-07-24T09:12:32;29.10;95.70
25568;DHT22;13455;51.480;7.594;2022-07-24T09:14:58;29.10;96.00
25568;DHT22;13455;51.480;7.594;2022-07-24T09:17:24;29.30;94.40
25568;DHT22;13455;51.480;7.594;2022-07-24T09:34:53;30.10;90.70
25568;DHT22;13455;51.480;7.594;2022-07-24T09:37:19;30.20;90.90
25568;DHT22;13455;51.480;7.594;2022-07-24T09:39:45;30.30;90.00
25568;DHT22;13455;51.480;7.594;2022-07-24T09:47:11;30.90;99.90
25568;DHT22;13455;51.480;7.594;2022-07-24T09:59:46;31.30;81.40
25568;DHT22;13455;51.480;7.594;2022-07-24T10:04:44;31.40;79.10
25568;DHT22;13455;51.480;7.594;2022-07-24T10:07:15;31.50;79.30
25568;DHT22;13455;51.480;7.594;2022-07-24T10:09:43;31.70;88.90
25568;DHT22;13455;51.480;7.594;2022-07-24T10:17:08;31.80;76.70
25568;DHT22;13455;51.480;7.594;2022-07-24T10:47:48;33.30;64.80
25568;DHT22;13455;51.480;7.594;2022-07-24T10:50:13;33.40;69.10
25568;DHT22;13455;51.480;7.594;2022-07-24T10:57:58;34.10;95.50
25568;DHT22;13455;51.480;7.594;2022-07-24T11:10:52;34.20;59.60
25568;DHT22;13455;51.480;7.594;2022-07-24T11:29:22;35.30;55.30
25568;DHT22;13455;51.480;7.594;2022-07-24T12:21:15;37.20;52.00
25568;DHT22;13455;51.480;7.594;2022-07-24T12:23:44;37.70;63.60
25568;DHT22;13455;51.480;7.594;2022-07-24T12:33:36;37.80;47.30
25568;DHT22;13455;51.480;7.594;2022-07-24T12:36:11;37.80;47.20
25568;DHT22;13455;51.480;7.594;2022-07-24T12:38:56;38.00;47.30
25568;DHT22;13455;51.480;7.594;2022-07-24T12:41:26;38.10;49.00
25568;DHT22;13455;51.480;7.594;2022-07-24T12:49:11;38.20;82.50
25568;DHT22;13455;51.480;7.594;2022-07-24T12:51:56;38.40;45.20
25568;DHT22;13455;51.480;7.594;2022-07-24T12:56:55;38.70;76.00
25568;DHT22;13455;51.480;7.594;2022-07-24T13:04:22;38.70;43.60
25568;DHT22;13455;51.480;7.594;2022-07-24T13:06:56;39.00;44.00
25568;DHT22;13455;51.480;7.594;2022-07-24T13:16:45;39.10;82.50
25568;DHT22;13455;51.480;7.594;2022-07-24T13:19:12;39.40;79.10
25568;DHT22;13455;51.480;7.594;2022-07-24T13:21:39;39.60;80.30
25568;DHT22;13455;51.480;7.594;2022-07-24T13:28:58;40.00;40.70
25568;DHT22;13455;51.480;7.594;2022-07-24T13:31:24;39.90;40.70
25568;DHT22;13455;51.480;7.594;2022-07-24T13:33:51;39.90;41.20
25568;DHT22;13455;51.480;7.594;2022-07-24T13:36:18;39.90;39.60
25568;DHT22;13455;51.480;7.594;2022-07-24T13:38:43;39.90;39.50
25568;DHT22;13455;51.480;7.594;2022-07-24T13:41:10;40.10;40.70
25568;DHT22;13455;51.480;7.594;2022-07-24T13:46:04;41.10;47.20
25568;DHT22;13455;51.480;7.594;2022-07-24T13:48:30;40.30;39.70
25568;DHT22;13455;51.480;7.594;2022-07-24T13:50:56;40.60;72.00
25568;DHT22;13455;51.480;7.594;2022-07-24T13:53:22;40.20;39.10
25568;DHT22;13455;51.480;7.594;2022-07-24T13:58:14;39.90;76.80
25568;DHT22;13455;51.480;7.594;2022-07-24T14:00:40;40.00;72.00
25568;DHT22;13455;51.480;7.594;2022-07-24T14:03:06;40.20;59.40
25568;DHT22;13455;51.480;7.594;2022-07-24T14:05:31;40.00;39.50
25568;DHT22;13455;51.480;7.594;2022-07-24T14:07:57;40.30;40.30
25568;DHT22;13455;51.480;7.594;2022-07-24T14:10:23;40.70;40.10
25568;DHT22;13455;51.480;7.594;2022-07-24T14:12:49;40.90;37.70
25568;DHT22;13455;51.480;7.594;2022-07-24T14:15:16;41.00;37.60
25568;DHT22;13455;51.480;7.594;2022-07-24T14:17:42;41.00;37.70
25568;DHT22;13455;51.480;7.594;2022-07-24T14:20:09;41.10;37.90
25568;DHT22;13455;51.480;7.594;2022-07-24T14:32:20;41.90;55.80
25568;DHT22;13455;51.480;7.594;2022-07-24T14:34:45;41.90;36.40
25568;DHT22;13455;51.480;7.594;2022-07-24T14:37:11;42.00;38.80
25568;DHT22;13455;51.480;7.594;2022-07-24T14:39:37;42.10;37.60
25568;DHT22;13455;51.480;7.594;2022-07-24T14:42:05;42.30;37.50
25568;DHT22;13455;51.480;7.594;2022-07-24T14:44:30;42.50;37.20
25568;DHT22;13455;51.480;7.594;2022-07-24T14:46:56;42.60;36.80
25568;DHT22;13455;51.480;7.594;2022-07-24T14:49:22;42.50;35.50
25568;DHT22;13455;51.480;7.594;2022-07-24T14:51:47;42.40;34.60
25568;DHT22;13455;51.480;7.594;2022-07-24T14:54:13;42.40;34.80
25568;DHT22;13455;51.480;7.594;2022-07-24T14:56:39;42.40;34.90
25568;DHT22;13455;51.480;7.594;2022-07-24T14:59:06;42.50;35.30
25568;DHT22;13455;51.480;7.594;2022-07-24T15:01:31;42.60;35.60
25568;DHT22;13455;51.480;7.594;2022-07-24T15:03:57;42.80;35.50
25568;DHT22;13455;51.480;7.594;2022-07-24T15:06:23;43.00;35.40
25568;DHT22;13455;51.480;7.594;2022-07-24T15:08:49;43.10;35.40
25568;DHT22;13455;51.480;7.594;2022-07-24T15:11:14;43.20;34.90
25568;DHT22;13455;51.480;7.594;2022-07-24T15:13:40;43.40;35.00
25568;DHT22;13455;51.480;7.594;2022-07-24T15:16:07;43.60;34.70
25568;DHT22;13455;51.480;7.594;2022-07-24T15:18:33;43.70;34.40
25568;DHT22;13455;51.480;7.594;2022-07-24T15:20:59;43.90;34.70
25568;DHT22;13455;51.480;7.594;2022-07-24T15:23:25;43.70;34.80
25568;DHT22;13455;51.480;7.594;2022-07-24T15:25:51;43.90;34.30
25568;DHT22;13455;51.480;7.594;2022-07-24T15:28:17;43.90;34.90
25568;DHT22;13455;51.480;7.594;2022-07-24T15:30:43;44.10;33.90
25568;DHT22;13455;51.480;7.594;2022-07-24T15:33:09;44.30;35.50
25568;DHT22;13455;51.480;7.594;2022-07-24T15:35:34;44.40;35.80
25568;DHT22;13455;51.480;7.594;2022-07-24T15:38:00;44.20;37.30
25568;DHT22;13455;51.480;7.594;2022-07-24T15:40:26;44.40;33.40
25568;DHT22;13455;51.480;7.594;2022-07-24T15:42:57;44.50;33.00
25568;DHT22;13455;51.480;7.594;2022-07-24T15:45:23;44.30;32.30
25568;DHT22;13455;51.480;7.594;2022-07-24T15:47:49;44.30;32.30
25568;DHT22;13455;51.480;7.594;2022-07-24T15:50:15;44.50;32.90
25568;DHT22;13455;51.480;7.594;2022-07-24T15:52:40;44.70;32.20
25568;DHT22;13455;51.480;7.594;2022-07-24T15:55:06;44.80;32.20
25568;DHT22;13455;51.480;7.594;2022-07-24T15:57:32;45.00;31.90
25568;DHT22;13455;51.480;7.594;2022-07-24T15:59:58;45.10;32.10
25568;DHT22;13455;51.480;7.594;2022-07-24T16:02:24;45.30;32.10
25568;DHT22;13455;51.480;7.594;2022-07-24T16:04:50;45.50;32.20
25568;DHT22;13455;51.480;7.594;2022-07-24T16:07:16;45.70;31.70
25568;DHT22;13455;51.480;7.594;2022-07-24T16:09:47;45.70;45.00
25568;DHT22;13455;51.480;7.594;2022-07-24T16:12:13;45.50;45.60
25568;DHT22;13455;51.480;7.594;2022-07-24T16:14:39;45.30;41.10
25568;DHT22;13455;51.480;7.594;2022-07-24T16:17:05;45.40;38.60
25568;DHT22;13455;51.480;7.594;2022-07-24T16:19:32;45.10;36.20
25568;DHT22;13455;51.480;7.594;2022-07-24T16:21:58;45.60;36.60
25568;DHT22;13455;51.480;7.594;2022-07-24T16:24:25;45.00;35.50
25568;DHT22;13455;51.480;7.594;2022-07-24T16:26:51;45.00;36.30
25568;DHT22;13455;51.480;7.594;2022-07-24T16:29:17;44.70;36.70
25568;DHT22;13455;51.480;7.594;2022-07-24T16:31:44;44.60;59.70
25568;DHT22;13455;51.480;7.594;2022-07-24T16:34:10;44.50;31.90
25568;DHT22;13455;51.480;7.594;2022-07-24T16:36:36;44.60;35.40
25568;DHT22;13455;51.480;7.594;2022-07-24T16:39:02;45.00;32.90
25568;DHT22;13455;51.480;7.594;2022-07-24T16:41:28;45.20;32.30
25568;DHT22;13455;51.480;7.594;2022-07-24T16:43:53;45.40;31.80
25568;DHT22;13455;51.480;7.594;2022-07-24T16:46:20;45.50;31.30
25568;DHT22;13455;51.480;7.594;2022-07-24T16:48:46;45.60;31.40
25568;DHT22;13455;51.480;7.594;2022-07-24T16:51:11;45.50;31.20
25568;DHT22;13455;51.480;7.594;2022-07-24T16:53:37;45.30;30.70
25568;DHT22;13455;51.480;7.594;2022-07-24T16:56:03;45.10;30.30
25568;DHT22;13455;51.480;7.594;2022-07-24T16:58:30;44.60;30.10
25568;DHT22;13455;51.480;7.594;2022-07-24T17:00:56;44.40;30.30
25568;DHT22;13455;51.480;7.594;2022-07-24T17:03:22;43.90;30.50
25568;DHT22;13455;51.480;7.594;2022-07-24T17:05:47;43.10;31.40
25568;DHT22;13455;51.480;7.594;2022-07-24T17:08:13;42.70;32.10
25568;DHT22;13455;51.480;7.594;2022-07-24T17:10:39;42.30;41.70
25568;DHT22;13455;51.480;7.594;2022-07-24T17:13:04;41.70;58.70
25568;DHT22;13455;51.480;7.594;2022-07-24T17:17:56;40.80;59.70
25568;DHT22;13455;51.480;7.594;2022-07-24T17:22:53;39.50;57.10
25568;DHT22;13455;51.480;7.594;2022-07-24T17:27:45;38.60;40.20
25568;DHT22;13455;51.480;7.594;2022-07-24T17:32:37;37.90;72.60
25568;DHT22;13455;51.480;7.594;2022-07-24T17:35:03;37.90;43.40
25568;DHT22;13455;51.480;7.594;2022-07-24T17:37:29;37.60;56.60
25568;DHT22;13455;51.480;7.594;2022-07-24T17:39:56;36.70;65.90
25568;DHT22;13455;51.480;7.594;2022-07-24T17:42:21;36.80;44.10
25568;DHT22;13455;51.480;7.594;2022-07-24T17:44:47;36.70;40.80
25568;DHT22;13455;51.480;7.594;2022-07-24T17:47:16;36.60;42.00
25568;DHT22;13455;51.480;7.594;2022-07-24T17:49:41;36.30;41.60
25568;DHT22;13455;51.480;7.594;2022-07-24T17:52:08;36.00;41.70
25568;DHT22;13455;51.480;7.594;2022-07-24T17:54:34;35.90;42.20
25568;DHT22;13455;51.480;7.594;2022-07-24T17:57:01;35.80;43.50
25568;DHT22;13455;51.480;7.594;2022-07-24T17:59:26;35.50;42.60
25568;DHT22;13455;51.480;7.594;2022-07-24T18:01:52;35.30;42.60
25568;DHT22;13455;51.480;7.594;2022-07-24T18:04:19;35.10;42.80
25568;DHT22;13455;51.480;7.594;2022-07-24T18:06:45;34.90;43.90
25568;DHT22;13455;51.480;7.594;2022-07-24T18:09:11;34.70;65.90
25568;DHT22;13455;51.480;7.594;2022-07-24T18:11:36;34.70;67.90
25568;DHT22;13455;51.480;7.594;2022-07-24T18:14:02;34.50;46.70
25568;DHT22;13455;51.480;7.594;2022-07-24T18:16:28;34.30;45.20
25568;DHT22;13455;51.480;7.594;2022-07-24T18:18:53;34.30;46.40
25568;DHT22;13455;51.480;7.594;2022-07-24T18:21:19;34.10;46.50
25568;DHT22;13455;51.480;7.594;2022-07-24T18:23:45;34.00;46.80
25568;DHT22;13455;51.480;7.594;2022-07-24T18:26:10;33.80;46.10
25568;DHT22;13455;51.480;7.594;2022-07-24T18:28:36;33.60;46.10
25568;DHT22;13455;51.480;7.594;2022-07-24T18:38:20;33.10;47.10
25568;DHT22;13455;51.480;7.594;2022-07-24T18:55:22;32.40;50.80
25568;DHT22;13455;51.480;7.594;2022-07-24T19:05:08;32.00;82.80
25568;DHT22;13455;51.480;7.594;2022-07-24T19:07:34;31.80;52.90
25568;DHT22;13455;51.480;7.594;2022-07-24T19:09:59;31.70;53.80
25568;DHT22;13455;51.480;7.594;2022-07-24T19:17:17;31.30;81.20
25568;DHT22;13455;51.480;7.594;2022-07-24T19:19:43;31.10;54.60
25568;DHT22;13455;51.480;7.594;2022-07-24T19:22:09;31.10;57.00
25568;DHT22;13455;51.480;7.594;2022-07-24T19:27:00;30.70;56.80
25568;DHT22;13455;51.480;7.594;2022-07-24T19:34:22;30.30;57.60
25568;DHT22;13455;51.480;7.594;2022-07-24T19:36:48;30.20;58.10
25568;DHT22;13455;51.480;7.594;2022-07-24T19:39:14;30.10;58.20
25568;DHT22;13455;51.480;7.594;2022-07-24T19:41:40;29.90;59.90
25568;DHT22;13455;51.480;7.594;2022-07-24T19:53:51;29.40;58.30
25568;DHT22;13455;51.480;7.594;2022-07-24T19:56:17;29.30;59.70
25568;DHT22;13455;51.480;7.594;2022-07-24T20:06:01;29.00;59.60
25568;DHT22;13455;51.480;7.594;2022-07-24T20:08:26;28.90;60.20
25568;DHT22;13455;51.480;7.594;2022-07-24T20:10:53;28.70;59.90
25568;DHT22;13455;51.480;7.594;2022-07-24T20:15:46;28.50;60.20
25568;DHT22;13455;51.480;7.594;2022-07-24T20:18:12;28.40;94.40
25568;DHT22;13455;51.480;7.594;2022-07-24T20:23:06;28.10;61.90
25568;DHT22;13455;51.480;7.594;2022-07-24T20:25:32;28.10;62.70
25568;DHT22;13455;51.480;7.594;2022-07-24T20:32:51;27.90;63.50
25568;DHT22;13455;51.480;7.594;2022-07-24T20:40:09;27.60;73.10
25568;DHT22;13455;51.480;7.594;2022-07-24T20:42:35;27.60;75.90
25568;DHT22;13455;51.480;7.594;2022-07-24T20:47:29;27.40;92.10
25568;DHT22;13455;51.480;7.594;2022-07-24T20:52:20;27.20;95.80
25568;DHT22;13455;51.480;7.594;2022-07-24T20:54:48;26.70;99.90
25568;DHT22;13455;51.480;7.594;2022-07-24T21:02:06;26.70;73.00
25568;DHT22;13455;51.480;7.594;2022-07-24T21:04:31;27.00;75.20
25568;DHT22;13455;51.480;7.594;2022-07-24T21:09:23;26.50;75.00
25568;DHT22;13455;51.480;7.594;2022-07-24T21:16:41;26.30;77.00
25568;DHT22;13455;51.480;7.594;2022-07-24T21:26:25;26.00;79.50
25568;DHT22;13455;51.480;7.594;2022-07-24T21:55:39;25.40;82.90
25568;DHT22;13455;51.480;7.594;2022-07-24T22:05:28;25.10;85.30
25568;DHT22;13455;51.480;7.594;2022-07-24T22:07:54;25.10;86.40
25568;DHT22;13455;51.480;7.594;2022-07-24T22:10:19;25.10;87.50
25568;DHT22;13455;51.480;7.594;2022-07-24T22:12:45;25.00;88.20
25568;DHT22;13455;51.480;7.594;2022-07-24T22:15:11;25.10;91.80
25568;DHT22;13455;51.480;7.594;2022-07-24T22:20:02;24.80;90.10
25568;DHT22;13455;51.480;7.594;2022-07-24T22:22:28;24.80;90.70
25568;DHT22;13455;51.480;7.594;2022-07-24T22:24:54;24.70;91.10
25568;DHT22;13455;51.480;7.594;2022-07-24T22:27:19;24.70;91.40
25568;DHT22;13455;51.480;7.594;2022-07-24T22:34:42;24.20;99.90
25568;DHT22;13455;51.480;7.594;2022-07-24T22:42:02;24.40;99.90
25568;DHT22;13455;51.480;7.594;2022-07-24T22:44:28;24.30;93.80
25568;DHT22;13455;51.480;7.594;2022-07-24T22:49:25;24.10;93.90
